createdAt,value
2018-03-24T00:00:55.751Z,30.50
2018-03-24T00:03:23.302Z,33.40
2018-03-24T00:05:50.722Z,26.13
2018-03-24T00:08:18.958Z,29.03
2018-03-24T00:10:46.416Z,28.40
2018-03-24T00:13:13.879Z,33.13
2018-03-24T00:15:41.335Z,33.13
2018-03-24T00:18:08.775Z,32.00
2018-03-24T00:20:36.268Z,25.03
2018-03-24T00:23:03.731Z,30.00
2018-03-24T00:25:31.168Z,23.47
2018-03-24T00:27:59.578Z,26.43
2018-03-24T00:30:27.123Z,27.33
2018-03-24T00:32:54.583Z,26.67
2018-03-24T00:35:22.023Z,24.63
2018-03-24T00:37:49.512Z,25.93
2018-03-24T00:40:16.981Z,27.47
2018-03-24T00:42:44.450Z,24.47
2018-03-24T00:45:12.000Z,25.40
2018-03-24T00:47:39.538Z,27.03
2018-03-24T00:50:06.968Z,24.83
2018-03-24T00:52:35.185Z,27.33
2018-03-24T00:55:02.619Z,21.17
2018-03-24T00:57:30.830Z,24.33
2018-03-24T00:59:58.259Z,23.60
2018-03-24T01:02:26.471Z,21.30
2018-03-24T01:04:53.920Z,28.00
2018-03-24T01:07:21.377Z,23.77
2018-03-24T01:09:48.883Z,26.03
2018-03-24T01:12:16.328Z,25.10
2018-03-24T01:14:43.774Z,23.47
2018-03-24T01:17:11.240Z,24.13
2018-03-24T01:19:38.684Z,25.07
2018-03-24T01:22:06.132Z,25.67
2018-03-24T01:24:33.572Z,22.27
2018-03-24T01:27:01.803Z,22.30
2018-03-24T01:29:29.245Z,26.80
2018-03-24T01:31:56.671Z,24.40
2018-03-24T01:34:24.887Z,23.87
2018-03-24T01:36:52.371Z,26.03
2018-03-24T01:39:19.836Z,25.30
2018-03-24T01:41:47.373Z,25.90
2018-03-24T01:44:14.864Z,24.07
2018-03-24T01:46:42.299Z,23.23
2018-03-24T01:49:09.746Z,26.67
2018-03-24T01:51:37.243Z,26.83
2018-03-24T01:54:04.708Z,24.97
2018-03-24T01:56:32.146Z,27.67
2018-03-24T01:58:59.609Z,28.03
2018-03-24T02:01:27.053Z,26.63
2018-03-24T02:03:54.560Z,25.33
2018-03-24T02:06:22.005Z,30.50
2018-03-24T02:08:49.448Z,27.67
2018-03-24T02:11:16.892Z,28.03
2018-03-24T02:13:45.104Z,23.43
2018-03-24T02:16:12.547Z,24.40
2018-03-24T02:18:40.532Z,20.77
2018-03-24T02:21:12.624Z,26.97
2018-03-24T02:23:40.071Z,27.70
2018-03-24T02:26:07.519Z,24.90
2018-03-24T02:28:34.966Z,24.30
2018-03-24T02:31:02.399Z,25.93
2018-03-24T02:33:30.601Z,25.00
2018-03-24T02:35:58.060Z,25.07
2018-03-24T02:38:26.261Z,33.53
2018-03-24T02:40:53.703Z,23.13
2018-03-24T02:43:21.139Z,24.40
2018-03-24T02:45:49.387Z,28.43
2018-03-24T02:48:16.848Z,25.77
2018-03-24T02:50:44.312Z,26.13
2018-03-24T02:53:11.756Z,25.60
2018-03-24T02:55:39.226Z,21.67
2018-03-24T02:58:06.693Z,23.37
2018-03-24T03:00:34.145Z,23.17
2018-03-24T03:03:01.608Z,26.93
2018-03-24T03:05:29.048Z,21.77
2018-03-24T03:07:56.528Z,22.00
2018-03-24T03:10:23.988Z,24.70
2018-03-24T03:12:51.440Z,23.97
2018-03-24T03:15:18.917Z,26.53
2018-03-24T03:17:46.355Z,26.00
2018-03-24T03:20:13.788Z,24.97
2018-03-24T03:22:41.996Z,25.50
2018-03-24T03:25:09.449Z,21.90
2018-03-24T03:27:36.932Z,24.77
2018-03-24T03:30:04.364Z,30.20
2018-03-24T03:32:31.812Z,24.37
2018-03-24T03:35:00.057Z,24.70
2018-03-24T03:37:27.499Z,22.03
2018-03-24T03:39:54.937Z,25.33
2018-03-24T03:42:22.429Z,23.90
2018-03-24T03:44:49.887Z,26.00
2018-03-24T03:47:17.324Z,19.63
2018-03-24T03:49:44.799Z,26.33
2018-03-24T03:52:12.268Z,23.67
2018-03-24T03:54:39.708Z,23.90
2018-03-24T03:57:07.135Z,25.17
2018-03-24T03:59:35.371Z,21.00
2018-03-24T04:02:02.808Z,26.43
2018-03-24T04:04:30.264Z,19.77
2018-03-24T04:06:57.751Z,25.00
2018-03-24T04:09:25.199Z,24.57
2018-03-24T04:11:52.729Z,27.70
2018-03-24T04:14:20.940Z,24.37
2018-03-24T04:16:48.363Z,25.60
2018-03-24T04:19:16.575Z,20.93
2018-03-24T04:21:44.024Z,26.60
2018-03-24T04:24:11.451Z,22.17
2018-03-24T04:26:38.976Z,26.53
2018-03-24T04:29:06.448Z,26.07
2018-03-24T04:31:33.893Z,23.40
2018-03-24T04:34:01.325Z,24.33
2018-03-24T04:36:28.765Z,23.53
2018-03-24T04:38:56.980Z,27.13
2018-03-24T04:41:24.463Z,19.83
2018-03-24T04:43:52.165Z,27.63
2018-03-24T04:46:19.604Z,21.80
2018-03-24T04:48:47.067Z,27.03
2018-03-24T04:51:14.589Z,24.37
2018-03-24T04:53:42.804Z,20.50
2018-03-24T04:56:10.356Z,26.87
2018-03-24T04:58:37.815Z,26.27
2018-03-24T05:01:05.283Z,23.70
2018-03-24T05:03:32.719Z,30.10
2018-03-24T05:06:00.172Z,23.83
2018-03-24T05:08:27.663Z,22.30
2018-03-24T05:10:55.096Z,27.60
2018-03-24T05:13:22.560Z,25.80
2018-03-24T05:15:49.999Z,27.50
2018-03-24T05:18:18.203Z,24.60
2018-03-24T05:20:45.660Z,25.73
2018-03-24T05:23:13.153Z,27.90
2018-03-24T05:25:40.604Z,29.17
2018-03-24T05:28:08.071Z,28.03
2018-03-24T05:30:35.549Z,28.00
2018-03-24T05:33:02.995Z,25.27
2018-03-24T05:35:30.456Z,27.40
2018-03-24T05:37:57.930Z,27.30
2018-03-24T05:40:25.395Z,29.13
2018-03-24T05:42:52.939Z,27.00
2018-03-24T05:45:20.396Z,28.30
2018-03-24T05:47:47.882Z,23.27
2018-03-24T05:50:15.332Z,25.20
2018-03-24T05:52:42.767Z,24.07
2018-03-24T05:55:10.329Z,29.07
2018-03-24T05:57:37.788Z,27.83
2018-03-24T06:00:05.241Z,29.00
2018-03-24T06:02:32.733Z,24.20
2018-03-24T06:05:00.195Z,22.77
2018-03-24T06:07:27.644Z,27.80
2018-03-24T06:09:55.092Z,25.70
2018-03-24T06:12:22.544Z,32.97
2018-03-24T06:14:49.992Z,28.23
2018-03-24T06:17:18.200Z,26.77
2018-03-24T06:19:45.643Z,32.30
2018-03-24T06:22:13.158Z,24.10
2018-03-24T06:24:40.607Z,26.63
2018-03-24T06:27:08.066Z,26.87
2018-03-24T06:29:35.514Z,31.97
2018-03-24T06:32:02.957Z,24.63
2018-03-24T06:34:30.391Z,25.93
2018-03-24T06:37:08.496Z,24.80
2018-03-24T06:39:36.808Z,22.27
2018-03-24T06:42:04.247Z,25.60
2018-03-24T06:44:32.456Z,27.50
2018-03-24T06:46:59.944Z,29.07
2018-03-24T06:49:27.387Z,29.70
2018-03-24T06:51:54.825Z,28.77
2018-03-24T06:54:22.267Z,25.53
2018-03-24T06:56:50.504Z,33.90
2018-03-24T06:59:17.949Z,27.23
2018-03-24T07:01:45.424Z,30.13
2018-03-24T07:04:12.872Z,30.60
2018-03-24T07:06:40.339Z,23.53
2018-03-24T07:09:07.791Z,25.10
2018-03-24T07:11:35.238Z,26.83
2018-03-24T07:14:02.733Z,29.90
2018-03-24T07:16:30.196Z,28.90
2018-03-24T07:18:57.727Z,30.00
2018-03-24T07:21:25.215Z,29.73
2018-03-24T07:23:52.661Z,29.13
2018-03-24T07:26:20.108Z,24.70
2018-03-24T07:28:47.551Z,25.30
2018-03-24T07:31:15.776Z,28.43
2018-03-24T07:33:43.220Z,24.70
2018-03-24T07:36:10.680Z,25.90
2018-03-24T07:38:38.189Z,24.37
2018-03-24T07:41:05.650Z,24.13
2018-03-24T07:43:33.079Z,26.27
2018-03-24T07:46:00.525Z,23.07
2018-03-24T07:48:27.982Z,24.60
2018-03-24T07:50:55.463Z,24.67
2018-03-24T07:53:22.916Z,22.60
2018-03-24T07:55:50.355Z,26.03
2018-03-24T07:58:17.847Z,23.20
2018-03-24T08:00:45.311Z,27.10
2018-03-24T08:03:12.766Z,21.40
2018-03-24T08:05:40.205Z,24.60
2018-03-24T08:08:07.648Z,22.10
2018-03-24T08:10:35.848Z,25.33
2018-03-24T08:13:03.331Z,26.70
2018-03-24T08:15:30.776Z,23.67
2018-03-24T08:17:58.215Z,21.20
2018-03-24T08:20:25.693Z,22.63
2018-03-24T08:22:53.136Z,21.00
2018-03-24T08:25:21.370Z,21.57
2018-03-24T08:27:48.830Z,22.03
2018-03-24T08:30:23.223Z,23.27
2018-03-24T08:32:51.420Z,21.47
2018-03-24T08:35:18.860Z,20.47
2018-03-24T08:37:46.300Z,22.73
2018-03-24T08:40:13.755Z,23.90
2018-03-24T08:42:41.966Z,21.37
2018-03-24T08:45:09.524Z,23.40
2018-03-24T08:47:37.020Z,21.90
2018-03-24T08:50:04.604Z,21.67
2018-03-24T08:52:32.014Z,20.23
2018-03-24T08:54:59.492Z,23.00
2018-03-24T08:57:26.931Z,22.20
2018-03-24T08:59:54.388Z,21.33
2018-03-24T09:02:21.890Z,22.70
2018-03-24T09:04:49.335Z,21.17
2018-03-24T09:07:16.775Z,25.77
2018-03-24T09:09:44.233Z,24.00
2018-03-24T09:12:11.727Z,22.20
2018-03-24T09:14:39.167Z,20.83
2018-03-24T09:17:06.607Z,19.97
2018-03-24T09:19:34.060Z,23.27
2018-03-24T09:22:02.292Z,19.40
2018-03-24T09:24:29.764Z,20.80
2018-03-24T09:26:57.217Z,20.13
2018-03-24T09:29:24.781Z,21.33
2018-03-24T09:31:52.231Z,20.37
2018-03-24T09:34:19.693Z,20.83
2018-03-24T09:36:47.164Z,19.67
2018-03-24T09:39:14.631Z,24.50
2018-03-24T09:41:42.090Z,19.53
2018-03-24T09:44:09.551Z,19.50
2018-03-24T09:46:37.001Z,21.10
2018-03-24T09:49:04.473Z,17.37
2018-03-24T09:51:32.941Z,18.33
2018-03-24T09:54:00.389Z,17.70
2018-03-24T09:56:27.844Z,19.03
2018-03-24T09:58:55.300Z,17.80
2018-03-24T10:01:23.076Z,21.37
2018-03-24T10:03:50.522Z,18.77
2018-03-24T10:06:17.968Z,15.20
2018-03-24T10:08:46.181Z,14.60
2018-03-24T10:11:13.645Z,15.53
2018-03-24T10:13:41.084Z,18.70
2018-03-24T10:16:08.546Z,16.53
2018-03-24T10:18:36.742Z,22.13
2018-03-24T10:24:23.512Z,19.70
2018-03-24T10:26:51.728Z,18.97
2018-03-24T10:29:19.173Z,21.37
2018-03-24T10:31:46.619Z,19.80
2018-03-24T10:34:14.836Z,19.13
2018-03-24T10:36:42.287Z,20.27
2018-03-24T10:39:09.723Z,14.33
2018-03-24T10:41:37.945Z,14.47
2018-03-24T10:44:05.372Z,12.13
2018-03-24T10:46:32.821Z,15.63
2018-03-24T10:49:01.029Z,12.37
2018-03-24T10:51:29.263Z,13.53
2018-03-24T10:53:57.583Z,12.17
2018-03-24T10:56:25.044Z,13.70
2018-03-24T10:58:52.528Z,13.40
2018-03-24T11:01:25.490Z,14.63
2018-03-24T11:03:52.919Z,12.37
2018-03-24T11:06:21.162Z,14.20
2018-03-24T11:08:48.624Z,13.20
2018-03-24T11:11:16.076Z,14.63
2018-03-24T11:13:43.535Z,13.73
2018-03-24T11:16:10.984Z,13.17
2018-03-24T11:18:38.431Z,11.57
2018-03-24T11:21:05.877Z,15.00
2018-03-24T11:23:34.105Z,15.93
2018-03-24T11:26:01.547Z,13.13
2018-03-24T11:28:28.986Z,12.17
2018-03-24T11:30:56.427Z,13.33
2018-03-24T11:33:24.639Z,12.10
2018-03-24T11:35:52.114Z,16.20
2018-03-24T11:38:19.555Z,14.53
2018-03-24T11:40:47.008Z,17.47
2018-03-24T11:43:15.212Z,16.43
2018-03-24T11:45:42.666Z,16.37
2018-03-24T11:48:10.104Z,16.37
2018-03-24T11:50:38.315Z,18.17
2018-03-24T11:53:05.809Z,17.40
2018-03-24T11:55:33.839Z,13.10
2018-03-24T11:58:01.341Z,14.10
2018-03-24T12:00:28.901Z,14.13
2018-03-24T12:02:56.388Z,11.90
2018-03-24T12:05:23.842Z,11.83
2018-03-24T12:07:51.300Z,12.97
2018-03-24T12:10:18.844Z,11.70
2018-03-24T12:12:46.306Z,17.23
2018-03-24T12:15:13.740Z,11.10
2018-03-24T12:17:41.236Z,14.27
2018-03-24T12:20:08.694Z,13.77
2018-03-24T12:22:36.164Z,16.80
2018-03-24T12:25:03.609Z,17.50
2018-03-24T12:27:31.056Z,17.40
2018-03-24T12:29:58.536Z,15.90
2018-03-24T12:32:26.100Z,14.90
2018-03-24T12:34:53.580Z,17.53
2018-03-24T12:37:21.120Z,17.30
2018-03-24T12:39:48.575Z,15.50
2018-03-24T12:42:16.025Z,13.10
2018-03-24T12:44:43.464Z,15.20
2018-03-24T12:47:10.919Z,15.63
2018-03-24T12:49:39.152Z,16.33
2018-03-24T12:52:06.607Z,16.43
2018-03-24T12:54:34.063Z,15.43
2018-03-24T12:57:01.532Z,15.60
2018-03-24T12:59:28.987Z,15.07
2018-03-24T13:01:56.431Z,14.27
2018-03-24T13:04:23.880Z,10.27
2018-03-24T13:06:51.339Z,14.10
2018-03-24T13:09:18.840Z,12.70
2018-03-24T13:11:46.287Z,11.63
2018-03-24T13:14:13.751Z,10.70
2018-03-24T13:16:41.209Z,13.83
2018-03-24T13:19:08.656Z,17.47
2018-03-24T13:21:36.109Z,15.37
2018-03-24T13:24:04.527Z,13.77
2018-03-24T13:26:32.916Z,15.00
2018-03-24T13:29:00.371Z,13.77
2018-03-24T13:31:27.927Z,11.87
2018-03-24T13:33:55.398Z,11.57
2018-03-24T13:36:22.828Z,11.20
2018-03-24T13:38:51.410Z,10.07
2018-03-24T13:41:19.111Z,9.67
2018-03-24T13:43:46.579Z,10.33
2018-03-24T13:46:14.054Z,10.40
2018-03-24T13:48:41.504Z,12.67
2018-03-24T13:51:08.947Z,10.47
2018-03-24T13:53:36.424Z,9.73
2018-03-24T13:56:03.878Z,11.20
2018-03-24T13:58:31.322Z,10.07
2018-03-24T14:00:58.803Z,12.87
2018-03-24T14:03:26.259Z,9.97
2018-03-24T14:05:53.728Z,8.77
2018-03-24T14:08:21.176Z,9.07
2018-03-24T14:10:48.617Z,8.83
2018-03-24T14:13:16.100Z,9.43
2018-03-24T14:15:43.539Z,8.73
2018-03-24T14:18:10.976Z,9.20
2018-03-24T14:20:39.179Z,10.03
2018-03-24T14:23:06.650Z,8.03
2018-03-24T14:25:34.079Z,9.10
2018-03-24T14:28:02.309Z,8.90
2018-03-24T14:30:29.744Z,9.40
2018-03-24T14:32:57.201Z,9.53
2018-03-24T14:35:24.700Z,8.17
2018-03-24T14:37:52.161Z,7.93
2018-03-24T14:40:19.719Z,7.27
2018-03-24T14:42:47.200Z,8.87
2018-03-24T14:45:14.629Z,8.33
2018-03-24T14:47:42.105Z,9.00
2018-03-24T14:50:09.638Z,7.50
2018-03-24T14:52:37.129Z,9.37
2018-03-24T14:55:04.581Z,8.10
2018-03-24T14:57:32.021Z,7.50
2018-03-24T14:59:59.513Z,8.27
2018-03-24T15:02:26.951Z,8.53
2018-03-24T15:04:54.431Z,9.57
2018-03-24T15:07:21.901Z,9.43
2018-03-24T15:09:49.367Z,10.53
2018-03-24T15:12:16.819Z,8.50
2018-03-24T15:14:44.260Z,9.90
2018-03-24T15:17:11.710Z,10.77
2018-03-24T15:19:39.208Z,12.90
2018-03-24T15:22:06.660Z,12.23
2018-03-24T15:24:34.103Z,14.33
2018-03-24T15:27:01.563Z,12.47
2018-03-24T15:29:40.971Z,15.43
2018-03-24T15:32:21.247Z,15.10
2018-03-24T15:35:00.499Z,15.80
2018-03-24T15:37:28.090Z,14.80
2018-03-24T15:39:55.645Z,15.60
2018-03-24T15:42:23.077Z,15.30
2018-03-24T15:44:50.528Z,13.60
2018-03-24T15:47:18.016Z,14.13
2018-03-24T15:49:45.481Z,20.23
2018-03-24T15:52:12.940Z,107.93
2018-03-24T15:54:40.401Z,14.83
2018-03-24T15:57:07.845Z,17.50
2018-03-24T15:59:35.306Z,13.70
2018-03-24T16:02:02.765Z,15.03
2018-03-24T16:04:30.220Z,14.30
2018-03-24T16:06:57.705Z,14.00
2018-03-24T16:09:25.245Z,14.80
2018-03-24T16:11:52.668Z,15.13
2018-03-24T16:14:20.916Z,16.70
2018-03-24T16:16:48.357Z,15.03
2018-03-24T16:19:15.831Z,10.50
2018-03-24T16:21:43.287Z,14.33
2018-03-24T16:24:10.735Z,12.73
2018-03-24T16:26:39.299Z,13.80
2018-03-24T16:29:06.743Z,17.40
2018-03-24T16:31:34.947Z,15.67
2018-03-24T16:34:02.399Z,18.13
2018-03-24T16:36:29.839Z,14.97
2018-03-24T16:38:57.291Z,14.37
2018-03-24T16:41:24.741Z,14.60
2018-03-24T16:43:52.192Z,13.13
2018-03-24T16:46:20.396Z,14.03
2018-03-24T16:48:47.835Z,11.83
2018-03-24T16:51:15.286Z,14.90
2018-03-24T16:53:43.487Z,11.87
2018-03-24T16:56:10.924Z,13.57
2018-03-24T16:58:39.131Z,14.80
2018-03-24T17:01:06.983Z,14.33
2018-03-24T17:03:35.264Z,17.43
2018-03-24T17:06:02.711Z,28.20
2018-03-24T17:08:30.163Z,17.30
2018-03-24T17:10:57.635Z,17.73
2018-03-24T17:13:25.115Z,19.10
2018-03-24T17:15:52.663Z,20.73
2018-03-24T17:18:20.237Z,21.33
2018-03-24T17:20:47.695Z,16.13
2018-03-24T17:23:15.132Z,17.53
2018-03-24T17:25:42.580Z,16.07
2018-03-24T17:28:10.020Z,14.43
2018-03-24T17:30:38.232Z,15.77
2018-03-24T17:33:05.667Z,21.93
2018-03-24T17:35:33.894Z,38.97
2018-03-24T17:38:01.430Z,24.93
2018-03-24T17:40:28.917Z,21.80
2018-03-24T17:42:56.352Z,19.23
2018-03-24T17:45:23.808Z,21.77
2018-03-24T17:47:51.243Z,41.67
2018-03-24T17:50:19.483Z,39.80
2018-03-24T17:52:46.925Z,33.07
2018-03-24T17:55:14.404Z,42.17
2018-03-24T17:57:41.859Z,36.07
2018-03-24T18:00:09.302Z,38.50
2018-03-24T18:02:36.792Z,54.57
2018-03-24T18:05:04.240Z,62.47
2018-03-24T18:07:31.686Z,30.10
2018-03-24T18:09:59.130Z,22.73
2018-03-24T18:12:26.563Z,25.33
2018-03-24T18:14:54.011Z,19.97
2018-03-24T18:17:21.453Z,22.20
2018-03-24T18:19:48.891Z,20.53
2018-03-24T18:22:16.329Z,19.27
2018-03-24T18:24:43.772Z,17.40
2018-03-24T18:27:11.989Z,19.13
2018-03-24T18:29:39.579Z,27.60
2018-03-24T18:32:07.116Z,18.37
2018-03-24T18:34:34.544Z,17.73
2018-03-24T18:37:02.760Z,20.70
2018-03-24T18:39:30.221Z,17.10
2018-03-24T18:41:57.665Z,22.20
2018-03-24T18:44:25.909Z,24.13
2018-03-24T18:46:53.405Z,23.40
2018-03-24T18:49:20.808Z,35.10
2018-03-24T18:51:48.244Z,18.97
2018-03-24T18:54:15.676Z,23.63
2018-03-24T18:56:43.907Z,26.57
2018-03-24T18:59:11.368Z,24.83
2018-03-24T19:01:38.837Z,28.73
2018-03-24T19:04:06.295Z,31.47
2018-03-24T19:06:34.134Z,27.20
2018-03-24T19:09:01.626Z,32.83
2018-03-24T19:11:29.086Z,38.23
2018-03-24T19:13:56.520Z,34.07
2018-03-24T19:16:24.009Z,29.60
2018-03-24T19:18:51.562Z,34.20
2018-03-24T19:21:18.999Z,25.90
2018-03-24T19:23:46.467Z,27.40
2018-03-24T19:26:13.902Z,31.70
2018-03-24T19:28:42.142Z,24.23
2018-03-24T19:31:09.612Z,30.80
2018-03-24T19:33:37.043Z,31.93
2018-03-24T19:36:04.492Z,30.77
2018-03-24T19:38:31.928Z,29.37
2018-03-24T19:41:00.163Z,30.77
2018-03-24T19:43:27.601Z,36.60
2018-03-24T19:45:55.087Z,33.00
2018-03-24T19:48:22.616Z,33.43
2018-03-24T19:50:50.107Z,35.07
2018-03-24T19:53:17.568Z,34.90
2018-03-24T19:55:45.038Z,33.47
2018-03-24T19:58:12.474Z,41.13
2018-03-24T20:00:39.912Z,36.73
2018-03-24T20:03:07.347Z,38.27
2018-03-24T20:05:35.613Z,36.87
2018-03-24T20:08:03.061Z,33.97
2018-03-24T20:10:30.528Z,39.27
2018-03-24T20:12:58.052Z,36.37
2018-03-24T20:15:25.628Z,39.33
2018-03-24T20:17:53.113Z,38.10
2018-03-24T20:20:20.652Z,42.97
2018-03-24T20:22:48.108Z,42.03
2018-03-24T20:25:15.536Z,44.43
2018-03-24T20:27:43.769Z,44.07
2018-03-24T20:30:11.216Z,45.50
2018-03-24T20:32:38.693Z,46.93
2018-03-24T20:35:06.142Z,52.57
2018-03-24T20:37:33.688Z,47.90
2018-03-24T20:40:01.289Z,58.03
2018-03-24T20:42:28.737Z,54.23
2018-03-24T20:44:56.192Z,49.60
2018-03-24T20:47:23.638Z,53.40
2018-03-24T20:49:51.076Z,41.37
2018-03-24T20:52:19.295Z,50.47
2018-03-24T20:54:46.758Z,48.93
2018-03-24T20:57:14.219Z,51.10
2018-03-24T20:59:41.665Z,46.53
2018-03-24T21:02:09.143Z,49.37
2018-03-24T21:04:36.686Z,47.50
2018-03-24T21:07:04.179Z,45.70
2018-03-24T21:09:31.616Z,44.07
2018-03-24T21:11:59.079Z,41.17
2018-03-24T21:14:26.541Z,44.23
2018-03-24T21:16:54.001Z,41.23
2018-03-24T21:19:21.428Z,38.10
2018-03-24T21:21:49.734Z,42.50
2018-03-24T21:24:17.194Z,33.10
2018-03-24T21:26:44.631Z,40.10
2018-03-24T21:29:12.840Z,45.13
2018-03-24T21:31:40.279Z,39.73
2018-03-24T21:34:07.838Z,42.97
2018-03-24T21:36:35.364Z,38.87
2018-03-24T21:39:02.803Z,36.33
2018-03-24T21:41:30.283Z,32.83
2018-03-24T21:43:57.741Z,33.90
2018-03-24T21:46:25.198Z,36.17
2018-03-24T21:48:52.635Z,31.67
2018-03-24T21:51:20.116Z,32.13
2018-03-24T21:53:47.554Z,30.70
2018-03-24T21:56:15.020Z,33.67
2018-03-24T21:58:42.465Z,32.50
2018-03-24T22:01:09.907Z,33.20
2018-03-24T22:03:38.241Z,36.23
2018-03-24T22:06:05.668Z,34.03
2018-03-24T22:08:33.160Z,31.73
2018-03-24T22:11:00.702Z,35.20
2018-03-24T22:13:28.267Z,34.80
2018-03-24T22:15:55.758Z,36.23
2018-03-24T22:18:23.216Z,38.37
2018-03-24T22:20:50.730Z,36.87
2018-03-24T22:23:19.033Z,40.47
2018-03-24T22:25:46.525Z,38.00
2018-03-24T22:28:13.984Z,36.20
2018-03-24T22:30:41.443Z,35.30
2018-03-24T22:33:08.891Z,36.47
2018-03-24T22:35:36.373Z,34.70
2018-03-24T22:38:03.811Z,34.83
2018-03-24T22:40:31.252Z,33.93
2018-03-24T22:42:58.701Z,30.03
2018-03-24T22:45:26.132Z,31.53
2018-03-24T22:47:53.571Z,36.37
2018-03-24T22:50:21.099Z,33.10
2018-03-24T22:52:48.691Z,39.40
2018-03-24T22:55:16.133Z,36.20
2018-03-24T22:57:43.576Z,30.93
2018-03-24T23:00:11.011Z,38.40
2018-03-24T23:02:38.443Z,33.73
2018-03-24T23:05:05.884Z,32.97
2018-03-24T23:07:33.328Z,40.67
2018-03-24T23:10:00.765Z,31.10
2018-03-24T23:12:28.972Z,32.77
2018-03-24T23:14:56.479Z,38.37
2018-03-24T23:17:24.657Z,35.27
2018-03-24T23:19:52.091Z,34.50
2018-03-24T23:22:19.538Z,33.30
2018-03-24T23:24:47.039Z,35.90
2018-03-24T23:27:14.487Z,32.07
2018-03-24T23:29:41.923Z,37.20
2018-03-24T23:32:09.419Z,35.80
2018-03-24T23:34:37.556Z,32.60
2018-03-24T23:37:04.997Z,31.13
2018-03-24T23:39:33.201Z,33.20
2018-03-24T23:42:00.697Z,37.30
2018-03-24T23:44:28.135Z,29.03
2018-03-24T23:46:55.575Z,36.10
2018-03-24T23:49:23.044Z,30.10
2018-03-24T23:51:50.529Z,39.77
2018-03-24T23:54:17.972Z,31.90
2018-03-24T23:56:45.490Z,34.47
2018-03-24T23:59:12.896Z,36.37
